Airfield :
LOGIN :

Register | Disclaimer

   EN    FR    IT 

 










Legend :    VFR   Marginal VFR   IFR   Intensive IFR   Very Intensive IFR
Visi :
Ceiling :
>= 8 km
>= 3000ft
5 to 8 km
1000 to 3000 ft
1500m to 5 km
500 to 1000 ft
800 to 1500m
200 to 500 ft
< 800m
< 200 ft
Symbols :   Thunderstorms  Fog  Heavy snow  Heavy precipitations  Wind > 20 kt
SIGMETs :     Misc.  Thunderstorms  Icing  Turbulence  Mountain Waves  Volcanic Ashes







- Airport Elevation : 34 ft
- IATA code : BLK
- Download approach charts


EGNH - Blackpool

CURRENT METAR :
  • 231620Z 31019KT 9999 VCSH FEW030 13/05 Q1025 WS RWY10

EXPIRED METARs :
  • 231550Z 31017KT 9999 SCT028CB 13/06 Q1024 WS RWY10
  • 231520Z 30016KT 9999 SCT028CB 13/07 Q1024 WS RWY10
  • 231420Z 31016KT 9999 FEW015CB SCT024TCU 13/07 Q1023 WS RWY10
  • 231350Z 31015KT 9999 FEW029TCU 13/06 Q1022 WS RWY10

TAF TAF EGNH
Valid from the 23 at 15:00 until the 23 at 20:00 UTC


231356Z 2315/2320 33012KT 9999 SCT030
PROB40
TEMPO 2315/2320 33015G25KT 7000 SHRA
ATIS : +44 1253 343 434 (x8315)
No reported NOTAMs for that airfield.



MET'MAP, your aeronautical weather chart ! - Copyright ORBIFLY December 2007 - Disclaimer

ORBIFLY MET'MAP TEAM :

Programming & Development : Alexandra Zaïnal
Concept & Development : Baudouin d'Aumeries
Co-Development & Prog : Marc-Olivier Méhu
Technical & hardware support : Manuel Goepfert

Contact : metmap@orbifly.com




SOURCES & CREDITS :

   NOAA